AirNav   Air Wisconsin pilot careers
 
 1030 users online  

87K El Dorado Springs Memorial Airport
El Dorado Springs, Missouri, USA

GOING TO EL DORADO SPRINGS?


FAA INFORMATION EFFECTIVE 25 APRIL 2019

Location

FAA Identifier: 87K
Lat/Long: 37-51-25.7000N / 093-59-51.5000W
37-51.428333N / 093-59.858333W
37.8571389 / -93.9976389
(estimated)
Elevation: 931 ft. / 284 m (estimated)
Variation: 05E (1985)
From city: 2 miles SE of EL DORADO SPRINGS, MO
Time zone: UTC -5 (UTC -6 during Standard Time)
Zip code: 64744

Airport Operations

Airport use: Open to the public
Control tower: no
ARTCC: KANSAS CITY CENTER
FSS: COLUMBIA FLIGHT SERVICE STATION
NOTAMs facility: COU (NOTAM-D service available)
Attendance: CONTINUOUS
MANAGER LIVES ON AIRPORT.
Wind indicator: lighted
Segmented circle: no
Lights: ACTVT MIRL RY 04/22 - CTAF.
Beacon: white-green (lighted land airport)
Operates sunset to sunrise.

Airport Communications

CTAF/UNICOM: 122.8
WX AWOS-3 at NVD (15 nm W): 119.175 (417-448-1635)

Nearby radio navigation aids

VOR radial/distance  VOR name  Freq  Var
BUMr130/34.0BUTLER VORTAC115.9007E

 
NDB name  Hdg/Dist  Freq  Var  ID
GOLDEN VALLEY205/33.538801EGLY --. .-.. -.--

Airport Services

Parking: tiedowns
Bottled oxygen: NONE
Bulk oxygen: NONE

Runway Information

Runway 4/22

Dimensions: 3295 x 50 ft. / 1004 x 15 m
Surface: asphalt, in good condition
Runway edge lights: medium intensity
Gradient: 0.7% UP SW.
RUNWAY 4  RUNWAY 22
Latitude: 37-51.217167N37-51.583333N
Longitude: 094-00.199667W093-59.694000W
Elevation: 931.4 ft.909.9 ft.
Traffic pattern: leftleft
Markings: basic, in good conditionbasic, in good condition
Obstructions: 43 ft. trees, 239 ft. from runway, 117 ft. right of centerlinenone

Runway 18/36

Dimensions: 2430 x 50 ft. / 741 x 15 m
Surface: turf, in excellent condition
RUNWAY 18  RUNWAY 36
Latitude: 37-51.666667N37-51.266667N
Longitude: 093-59.725500W093-59.749500W
Traffic pattern: leftleft
Obstructions: 22 ft. trees30 ft. trees, 75 ft. left and right of centerline

Airport Ownership and Management from official FAA records

Ownership: Publicly-owned
Owner: CITY OF EL DORADO SPRINGS
127 W SPRING
EL DORADO SPRINGS, MO 64744
Phone 417-876-2521
Manager: JERRY SHILT
3665 E. 320 RD.
EL DORADO SPRINGS, MO 64744
Phone 417-876-4370

Airport Operational Statistics

Aircraft based on the field: 15
Single engine airplanes: 15
    
Aircraft operations: avg 69/week *
72% local general aviation
26% transient general aviation
1% military
1% air taxi
* for 12-month period ending 31 December 2016

Additional Remarks

WILDLIFE ON & INVOF ARPT.
INSUF RWY SAFETY AREA LENGTH BYND EACH END OF RWY 18/36. TREES WITHIN RWY SAFETY AREA AT EACH END OF RWY 18/36.

Instrument Procedures

There are no published instrument procedures at 87K.

Some nearby airports with instrument procedures:

KNVD - Nevada Municipal Airport (15 nm W)
MO3 - Stockton Municipal Airport (15 nm SE)
KLLU - Lamar Municipal Airport (27 nm SW)
KBUM - Butler Memorial Airport (31 nm NW)
KGLY - Clinton Regional Airport (33 nm NE)
 
Loc | Ops | Rwys | IFR | FBO | Links
Com | Nav | Svcs | Stats | Notes

Kansas City Aviation Department
 
Area around 87K (El Dorado Springs Memorial Airport)
 
Road maps at: MapQuest Bing Google
 
Aerial photo
WARNING: Photo may not be current or correct
Aerial photo of 87K (El Dorado Springs Memorial Airport)
Photo by Eve Cascella
Photo taken 22-Sep-2013
looking south.

Do you have a better or more recent aerial photo of El Dorado Springs Memorial Airport that you would like to share? If so, please send us your photo.

 
Sectional chart

 
Airport distance calculator
Flying to El Dorado Springs Memorial Airport? Find the distance to fly.

From to 87K

Sunrise and sunset
Times for 25-Apr-2019
 Local
(UTC-5)
 Zulu
(UTC)
Morning civil twilight06:0111:01
Sunrise06:2811:28
Sunset20:0001:00
Evening civil twilight20:2701:27

Current date and time
Zulu (UTC)  25-Apr-2019 23:49:36
Local (UTC-5)  25-Apr-2019 18:49:36
 
METAR
KGLY 
33nm NE 
252335Z AUTO 36022G25KT 10SM FEW090 20/12 A2983 RMK AO2
KPTS 
43nm SW 
252335Z AUTO 33013G22KT 10SM SCT090 21/12 A2986 RMK AO2 T02050123
KRAW 
43nm NE 
252335Z AUTO 33021G27KT 10SM SCT046 A2982 RMK AO2
KSGF 
47nm SE 
252252Z 32012G16KT 10SM BKN050 BKN060 OVC070 22/12 A2979 RMK AO2 SLP079 T02170117
KLRY 
48nm N 
252335Z AUTO 36014G25KT 10SM SCT037 20/10 A2991 RMK AO2
KJLN 
49nm SW 
252253Z 32018G26KT 10SM SCT065 SCT085 OVC110 22/12 A2983 RMK AO2 PK WND 33026/2251 SLP095 T02220122
TAF
KSGF 
47nm SE 
251728Z 2517/2618 34009KT P6SM OVC025 FM251900 34010KT P6SM BKN035 FM252000 34011KT P6SM BKN070 FM260500 34012KT P6SM FEW250 WS020/00040KT FM260800 32007KT P6SM SKC
KJLN 
49nm SW 
251728Z 2517/2618 35008KT P6SM SCT050 FM251900 35009KT P6SM SCT080 FM252300 34013KT P6SM BKN070 FM260100 34014KT P6SM SCT150 FM260400 34010KT P6SM SKC WS020/01040KT
NOTAMs
Click for the latest NOTAMs
NOTAMs are issued by the DoD/FAA and will open in a separate window not controlled by AirNav.

 

 
 

Would you like to see your business listed on this page?

 If your business provides an interesting product or service to pilots, flight crews, aircraft, or users of the El Dorado Springs Memorial Airport, you should consider listing it here.  To start the listing process, click on the button below
 
Add a business
 

Other Pages about El Dorado Springs Memorial Airport

Update a link
 
Copyright © AirNav, LLC. All rights reserved. Privacy Policy  Contact